sensor_id;sensor_type;location;lat;lon;timestamp;P1;durP1;ratioP1;P2;durP2;ratioP2
30147;SDS011;16960;49.404;8.248;2022-09-24T00:01:33;2.90;;;2.37;;
30147;SDS011;16960;49.404;8.248;2022-09-24T00:04:04;2.60;;;2.40;;
30147;SDS011;16960;49.404;8.248;2022-09-24T00:06:33;2.50;;;2.30;;
30147;SDS011;16960;49.404;8.248;2022-09-24T00:09:02;2.27;;;2.07;;
30147;SDS011;16960;49.404;8.248;2022-09-24T00:11:30;2.40;;;2.20;;
30147;SDS011;16960;49.404;8.248;2022-09-24T00:13:57;2.37;;;2.27;;
30147;SDS011;16960;49.404;8.248;2022-09-24T00:16:25;3.53;;;2.80;;
30147;SDS011;16960;49.404;8.248;2022-09-24T00:18:54;3.70;;;3.10;;
30147;SDS011;16960;49.404;8.248;2022-09-24T00:21:23;2.37;;;2.20;;
30147;SDS011;16960;49.404;8.248;2022-09-24T00:23:51;2.17;;;2.03;;
30147;SDS011;16960;49.404;8.248;2022-09-24T00:26:20;2.43;;;2.30;;
30147;SDS011;16960;49.404;8.248;2022-09-24T00:29:05;2.83;;;2.53;;
30147;SDS011;16960;49.404;8.248;2022-09-24T00:31:34;2.60;;;2.40;;
30147;SDS011;16960;49.404;8.248;2022-09-24T00:34:01;2.10;;;1.90;;
30147;SDS011;16960;49.404;8.248;2022-09-24T00:36:30;2.53;;;2.33;;
30147;SDS011;16960;49.404;8.248;2022-09-24T00:38:57;2.87;;;2.33;;
30147;SDS011;16960;49.404;8.248;2022-09-24T00:41:26;2.30;;;2.10;;
30147;SDS011;16960;49.404;8.248;2022-09-24T00:43:55;2.33;;;2.03;;
30147;SDS011;16960;49.404;8.248;2022-09-24T00:46:24;2.23;;;2.03;;
30147;SDS011;16960;49.404;8.248;2022-09-24T00:48:55;2.50;;;2.30;;
30147;SDS011;16960;49.404;8.248;2022-09-24T00:51:25;2.13;;;1.93;;
30147;SDS011;16960;49.404;8.248;2022-09-24T00:53:58;3.30;;;2.00;;
30147;SDS011;16960;49.404;8.248;2022-09-24T00:56:29;2.30;;;2.10;;
30147;SDS011;16960;49.404;8.248;2022-09-24T00:58:57;2.13;;;1.70;;
30147;SDS011;16960;49.404;8.248;2022-09-24T01:01:27;2.90;;;2.63;;
30147;SDS011;16960;49.404;8.248;2022-09-24T01:03:55;2.23;;;2.03;;
30147;SDS011;16960;49.404;8.248;2022-09-24T01:06:24;2.20;;;2.00;;
30147;SDS011;16960;49.404;8.248;2022-09-24T01:08:51;2.50;;;2.10;;
30147;SDS011;16960;49.404;8.248;2022-09-24T01:11:31;2.30;;;2.10;;
30147;SDS011;16960;49.404;8.248;2022-09-24T01:14:08;4.20;;;2.10;;
30147;SDS011;16960;49.404;8.248;2022-09-24T01:16:59;2.50;;;2.30;;
30147;SDS011;16960;49.404;8.248;2022-09-24T01:19:42;2.37;;;2.17;;
30147;SDS011;16960;49.404;8.248;2022-09-24T01:22:25;2.60;;;2.40;;
30147;SDS011;16960;49.404;8.248;2022-09-24T01:24:59;2.27;;;2.10;;
30147;SDS011;16960;49.404;8.248;2022-09-24T01:27:41;2.20;;;2.07;;
30147;SDS011;16960;49.404;8.248;2022-09-24T01:30:24;3.10;;;2.47;;
30147;SDS011;16960;49.404;8.248;2022-09-24T01:32:56;2.63;;;2.40;;
30147;SDS011;16960;49.404;8.248;2022-09-24T01:35:28;2.20;;;2.00;;
30147;SDS011;16960;49.404;8.248;2022-09-24T01:38:01;2.40;;;2.20;;
30147;SDS011;16960;49.404;8.248;2022-09-24T01:40:30;2.50;;;2.30;;
30147;SDS011;16960;49.404;8.248;2022-09-24T01:42:58;3.00;;;2.33;;
30147;SDS011;16960;49.404;8.248;2022-09-24T01:45:28;2.23;;;2.00;;
30147;SDS011;16960;49.404;8.248;2022-09-24T01:47:57;2.53;;;2.33;;
30147;SDS011;16960;49.404;8.248;2022-09-24T01:50:25;2.37;;;2.17;;
30147;SDS011;16960;49.404;8.248;2022-09-24T01:52:58;2.30;;;2.20;;
30147;SDS011;16960;49.404;8.248;2022-09-24T01:55:31;2.57;;;2.37;;
30147;SDS011;16960;49.404;8.248;2022-09-24T01:58:03;2.37;;;2.20;;
30147;SDS011;16960;49.404;8.248;2022-09-24T02:00:36;2.43;;;2.23;;
30147;SDS011;16960;49.404;8.248;2022-09-24T02:03:09;2.00;;;1.90;;
30147;SDS011;16960;49.404;8.248;2022-09-24T02:05:40;2.27;;;2.07;;
30147;SDS011;16960;49.404;8.248;2022-09-24T02:08:15;2.97;;;2.77;;
30147;SDS011;16960;49.404;8.248;2022-09-24T02:10:46;2.27;;;2.07;;
30147;SDS011;16960;49.404;8.248;2022-09-24T02:13:17;1.87;;;1.77;;
30147;SDS011;16960;49.404;8.248;2022-09-24T02:15:50;2.43;;;2.23;;
30147;SDS011;16960;49.404;8.248;2022-09-24T02:18:24;2.10;;;2.00;;
30147;SDS011;16960;49.404;8.248;2022-09-24T02:20:57;2.33;;;2.13;;
30147;SDS011;16960;49.404;8.248;2022-09-24T02:23:27;2.07;;;1.90;;
30147;SDS011;16960;49.404;8.248;2022-09-24T02:25:57;2.60;;;2.40;;
30147;SDS011;16960;49.404;8.248;2022-09-24T02:28:26;2.23;;;2.03;;
30147;SDS011;16960;49.404;8.248;2022-09-24T02:30:56;2.20;;;2.10;;
30147;SDS011;16960;49.404;8.248;2022-09-24T02:33:27;2.20;;;2.00;;
30147;SDS011;16960;49.404;8.248;2022-09-24T02:36:15;2.20;;;2.03;;
30147;SDS011;16960;49.404;8.248;2022-09-24T02:38:42;3.03;;;2.53;;
30147;SDS011;16960;49.404;8.248;2022-09-24T02:41:11;2.43;;;2.23;;
30147;SDS011;16960;49.404;8.248;2022-09-24T02:43:39;2.30;;;2.10;;
30147;SDS011;16960;49.404;8.248;2022-09-24T02:46:07;2.40;;;2.20;;
30147;SDS011;16960;49.404;8.248;2022-09-24T02:48:34;2.60;;;2.40;;
30147;SDS011;16960;49.404;8.248;2022-09-24T02:51:01;2.33;;;2.17;;
30147;SDS011;16960;49.404;8.248;2022-09-24T02:53:29;2.73;;;1.70;;
30147;SDS011;16960;49.404;8.248;2022-09-24T02:55:56;2.60;;;2.40;;
30147;SDS011;16960;49.404;8.248;2022-09-24T02:58:24;3.30;;;2.50;;
30147;SDS011;16960;49.404;8.248;2022-09-24T03:00:51;2.33;;;2.00;;
30147;SDS011;16960;49.404;8.248;2022-09-24T03:03:20;2.23;;;2.03;;
30147;SDS011;16960;49.404;8.248;2022-09-24T03:05:47;2.30;;;2.20;;
30147;SDS011;16960;49.404;8.248;2022-09-24T03:08:17;2.33;;;2.23;;
30147;SDS011;16960;49.404;8.248;2022-09-24T03:10:44;2.20;;;1.83;;
30147;SDS011;16960;49.404;8.248;2022-09-24T03:13:11;3.47;;;2.47;;
30147;SDS011;16960;49.404;8.248;2022-09-24T03:15:38;2.30;;;2.10;;
30147;SDS011;16960;49.404;8.248;2022-09-24T03:18:05;2.60;;;2.20;;
30147;SDS011;16960;49.404;8.248;2022-09-24T03:20:33;2.50;;;2.30;;
30147;SDS011;16960;49.404;8.248;2022-09-24T03:23:00;2.70;;;2.50;;
30147;SDS011;16960;49.404;8.248;2022-09-24T03:25:27;2.37;;;2.00;;
30147;SDS011;16960;49.404;8.248;2022-09-24T03:27:54;2.57;;;2.37;;
30147;SDS011;16960;49.404;8.248;2022-09-24T03:30:21;2.40;;;2.20;;
30147;SDS011;16960;49.404;8.248;2022-09-24T03:33:05;2.70;;;2.50;;
30147;SDS011;16960;49.404;8.248;2022-09-24T03:35:34;2.67;;;2.47;;
30147;SDS011;16960;49.404;8.248;2022-09-24T03:38:01;2.20;;;2.00;;
30147;SDS011;16960;49.404;8.248;2022-09-24T03:40:27;2.63;;;2.43;;
30147;SDS011;16960;49.404;8.248;2022-09-24T03:42:54;2.50;;;2.30;;
30147;SDS011;16960;49.404;8.248;2022-09-24T03:45:21;2.43;;;2.10;;
30147;SDS011;16960;49.404;8.248;2022-09-24T03:47:48;2.70;;;2.40;;
30147;SDS011;16960;49.404;8.248;2022-09-24T03:50:15;1.90;;;1.80;;
30147;SDS011;16960;49.404;8.248;2022-09-24T03:52:44;2.10;;;1.87;;
30147;SDS011;16960;49.404;8.248;2022-09-24T03:55:11;2.40;;;2.20;;
30147;SDS011;16960;49.404;8.248;2022-09-24T03:57:37;2.60;;;2.40;;
30147;SDS011;16960;49.404;8.248;2022-09-24T04:00:05;2.37;;;2.17;;
30147;SDS011;16960;49.404;8.248;2022-09-24T04:02:32;2.60;;;2.40;;
30147;SDS011;16960;49.404;8.248;2022-09-24T04:05:00;2.20;;;2.00;;
30147;SDS011;16960;49.404;8.248;2022-09-24T04:07:27;1.90;;;1.80;;
30147;SDS011;16960;49.404;8.248;2022-09-24T04:09:55;1.80;;;1.70;;
30147;SDS011;16960;49.404;8.248;2022-09-24T04:12:22;1.90;;;1.80;;
30147;SDS011;16960;49.404;8.248;2022-09-24T04:14:49;1.97;;;1.80;;
30147;SDS011;16960;49.404;8.248;2022-09-24T04:17:16;2.40;;;2.10;;
30147;SDS011;16960;49.404;8.248;2022-09-24T04:19:43;2.30;;;2.10;;
30147;SDS011;16960;49.404;8.248;2022-09-24T04:22:10;2.57;;;2.20;;
30147;SDS011;16960;49.404;8.248;2022-09-24T04:24:37;2.37;;;2.23;;
30147;SDS011;16960;49.404;8.248;2022-09-24T04:27:06;2.03;;;1.90;;
30147;SDS011;16960;49.404;8.248;2022-09-24T04:29:33;1.80;;;1.70;;
30147;SDS011;16960;49.404;8.248;2022-09-24T04:32:00;2.47;;;2.13;;
30147;SDS011;16960;49.404;8.248;2022-09-24T04:34:27;2.30;;;2.10;;
30147;SDS011;16960;49.404;8.248;2022-09-24T04:36:54;2.70;;;2.50;;
30147;SDS011;16960;49.404;8.248;2022-09-24T04:39:21;2.50;;;2.30;;
30147;SDS011;16960;49.404;8.248;2022-09-24T04:41:50;2.30;;;2.10;;
30147;SDS011;16960;49.404;8.248;2022-09-24T04:44:19;1.80;;;1.70;;
30147;SDS011;16960;49.404;8.248;2022-09-24T04:46:46;2.37;;;2.17;;
30147;SDS011;16960;49.404;8.248;2022-09-24T04:49:13;2.27;;;2.10;;
30147;SDS011;16960;49.404;8.248;2022-09-24T04:51:40;2.40;;;2.20;;
30147;SDS011;16960;49.404;8.248;2022-09-24T04:54:07;2.43;;;2.23;;
30147;SDS011;16960;49.404;8.248;2022-09-24T04:56:35;2.00;;;1.90;;
30147;SDS011;16960;49.404;8.248;2022-09-24T04:59:01;2.50;;;2.30;;
30147;SDS011;16960;49.404;8.248;2022-09-24T05:01:30;2.13;;;1.93;;
30147;SDS011;16960;49.404;8.248;2022-09-24T05:03:57;2.30;;;2.10;;
30147;SDS011;16960;49.404;8.248;2022-09-24T05:06:24;3.07;;;2.20;;
30147;SDS011;16960;49.404;8.248;2022-09-24T05:08:50;2.20;;;2.10;;
30147;SDS011;16960;49.404;8.248;2022-09-24T05:11:17;2.07;;;1.87;;
30147;SDS011;16960;49.404;8.248;2022-09-24T05:13:44;2.20;;;2.00;;
30147;SDS011;16960;49.404;8.248;2022-09-24T05:16:11;1.83;;;1.73;;
30147;SDS011;16960;49.404;8.248;2022-09-24T05:18:39;2.50;;;2.30;;
30147;SDS011;16960;49.404;8.248;2022-09-24T05:21:06;1.80;;;1.70;;
30147;SDS011;16960;49.404;8.248;2022-09-24T05:23:33;2.17;;;1.97;;
30147;SDS011;16960;49.404;8.248;2022-09-24T05:26:00;2.23;;;2.03;;
30147;SDS011;16960;49.404;8.248;2022-09-24T05:28:45;2.17;;;2.07;;
30147;SDS011;16960;49.404;8.248;2022-09-24T05:31:12;2.10;;;2.00;;
30147;SDS011;16960;49.404;8.248;2022-09-24T05:33:41;2.03;;;1.93;;
30147;SDS011;16960;49.404;8.248;2022-09-24T05:36:08;2.07;;;1.90;;
30147;SDS011;16960;49.404;8.248;2022-09-24T05:38:34;2.10;;;1.90;;
30147;SDS011;16960;49.404;8.248;2022-09-24T05:41:01;2.50;;;2.30;;
30147;SDS011;16960;49.404;8.248;2022-09-24T05:43:28;2.40;;;2.20;;
30147;SDS011;16960;49.404;8.248;2022-09-24T05:45:56;2.80;;;1.90;;
30147;SDS011;16960;49.404;8.248;2022-09-24T05:48:23;2.27;;;2.07;;
30147;SDS011;16960;49.404;8.248;2022-09-24T05:50:51;1.90;;;1.80;;
30147;SDS011;16960;49.404;8.248;2022-09-24T05:53:19;2.90;;;2.33;;
30147;SDS011;16960;49.404;8.248;2022-09-24T05:55:47;2.50;;;2.30;;
30147;SDS011;16960;49.404;8.248;2022-09-24T05:58:14;2.90;;;2.40;;
30147;SDS011;16960;49.404;8.248;2022-09-24T06:00:42;2.40;;;2.20;;
30147;SDS011;16960;49.404;8.248;2022-09-24T06:03:10;2.10;;;1.90;;
30147;SDS011;16960;49.404;8.248;2022-09-24T06:05:41;1.83;;;1.73;;
30147;SDS011;16960;49.404;8.248;2022-09-24T06:08:10;2.83;;;2.03;;
30147;SDS011;16960;49.404;8.248;2022-09-24T06:10:39;1.83;;;1.73;;
30147;SDS011;16960;49.404;8.248;2022-09-24T06:13:06;1.73;;;1.63;;
30147;SDS011;16960;49.404;8.248;2022-09-24T06:15:35;2.07;;;1.87;;
30147;SDS011;16960;49.404;8.248;2022-09-24T06:18:02;2.20;;;2.00;;
30147;SDS011;16960;49.404;8.248;2022-09-24T06:20:30;2.00;;;1.90;;
30147;SDS011;16960;49.404;8.248;2022-09-24T06:22:57;1.90;;;1.80;;
30147;SDS011;16960;49.404;8.248;2022-09-24T06:25:26;1.90;;;1.80;;
30147;SDS011;16960;49.404;8.248;2022-09-24T06:27:53;2.03;;;1.93;;
30147;SDS011;16960;49.404;8.248;2022-09-24T06:30:24;2.27;;;2.10;;
30147;SDS011;16960;49.404;8.248;2022-09-24T06:32:52;1.70;;;1.60;;
30147;SDS011;16960;49.404;8.248;2022-09-24T06:35:19;2.00;;;1.80;;
30147;SDS011;16960;49.404;8.248;2022-09-24T06:37:46;2.67;;;1.90;;
30147;SDS011;16960;49.404;8.248;2022-09-24T06:40:13;2.13;;;1.83;;
30147;SDS011;16960;49.404;8.248;2022-09-24T06:42:42;1.80;;;1.70;;
30147;SDS011;16960;49.404;8.248;2022-09-24T06:45:09;4.17;;;2.47;;
30147;SDS011;16960;49.404;8.248;2022-09-24T06:47:37;2.07;;;1.97;;
30147;SDS011;16960;49.404;8.248;2022-09-24T06:50:04;1.93;;;1.83;;
30147;SDS011;16960;49.404;8.248;2022-09-24T06:52:32;1.77;;;1.67;;
30147;SDS011;16960;49.404;8.248;2022-09-24T06:54:59;2.00;;;1.80;;
30147;SDS011;16960;49.404;8.248;2022-09-24T06:57:26;1.90;;;1.80;;
30147;SDS011;16960;49.404;8.248;2022-09-24T06:59:55;1.50;;;1.40;;
30147;SDS011;16960;49.404;8.248;2022-09-24T07:02:22;2.53;;;2.33;;
30147;SDS011;16960;49.404;8.248;2022-09-24T07:04:48;1.90;;;1.80;;
30147;SDS011;16960;49.404;8.248;2022-09-24T07:07:15;2.47;;;2.27;;
30147;SDS011;16960;49.404;8.248;2022-09-24T07:09:54;2.67;;;1.70;;
30147;SDS011;16960;49.404;8.248;2022-09-24T07:12:21;3.07;;;1.60;;
30147;SDS011;16960;49.404;8.248;2022-09-24T07:14:48;5.30;;;2.10;;
30147;SDS011;16960;49.404;8.248;2022-09-24T07:17:16;7.87;;;2.37;;
30147;SDS011;16960;49.404;8.248;2022-09-24T07:19:43;4.43;;;2.83;;
30147;SDS011;16960;49.404;8.248;2022-09-24T07:22:10;2.67;;;2.07;;
30147;SDS011;16960;49.404;8.248;2022-09-24T07:24:37;3.30;;;2.20;;
30147;SDS011;16960;49.404;8.248;2022-09-24T07:27:04;3.30;;;2.57;;
30147;SDS011;16960;49.404;8.248;2022-09-24T07:29:31;5.37;;;2.20;;
30147;SDS011;16960;49.404;8.248;2022-09-24T07:31:58;4.77;;;2.07;;
30147;SDS011;16960;49.404;8.248;2022-09-24T07:34:27;3.03;;;1.90;;
30147;SDS011;16960;49.404;8.248;2022-09-24T07:36:54;3.13;;;2.03;;
30147;SDS011;16960;49.404;8.248;2022-09-24T07:39:21;3.57;;;1.83;;
30147;SDS011;16960;49.404;8.248;2022-09-24T07:41:48;3.00;;;2.63;;
30147;SDS011;16960;49.404;8.248;2022-09-24T07:44:16;1.87;;;1.77;;
30147;SDS011;16960;49.404;8.248;2022-09-24T07:46:45;2.70;;;2.17;;
30147;SDS011;16960;49.404;8.248;2022-09-24T07:49:12;3.07;;;2.17;;
30147;SDS011;16960;49.404;8.248;2022-09-24T07:51:41;2.90;;;2.60;;
30147;SDS011;16960;49.404;8.248;2022-09-24T07:54:08;4.80;;;2.17;;
30147;SDS011;16960;49.404;8.248;2022-09-24T07:56:35;3.40;;;2.47;;
30147;SDS011;16960;49.404;8.248;2022-09-24T07:59:03;3.30;;;2.13;;
30147;SDS011;16960;49.404;8.248;2022-09-24T08:01:31;3.03;;;2.07;;
30147;SDS011;16960;49.404;8.248;2022-09-24T08:03:59;2.53;;;2.33;;
30147;SDS011;16960;49.404;8.248;2022-09-24T08:06:28;4.07;;;2.33;;
30147;SDS011;16960;49.404;8.248;2022-09-24T08:08:59;4.13;;;2.40;;
30147;SDS011;16960;49.404;8.248;2022-09-24T08:11:26;3.73;;;2.40;;
30147;SDS011;16960;49.404;8.248;2022-09-24T08:13:54;3.03;;;2.73;;
30147;SDS011;16960;49.404;8.248;2022-09-24T08:16:21;4.00;;;2.63;;
30147;SDS011;16960;49.404;8.248;2022-09-24T08:18:50;3.97;;;2.50;;
30147;SDS011;16960;49.404;8.248;2022-09-24T08:21:16;3.40;;;2.93;;
30147;SDS011;16960;49.404;8.248;2022-09-24T08:23:43;4.70;;;2.53;;
30147;SDS011;16960;49.404;8.248;2022-09-24T08:26:12;2.60;;;2.40;;
30147;SDS011;16960;49.404;8.248;2022-09-24T08:28:39;3.50;;;2.63;;
30147;SDS011;16960;49.404;8.248;2022-09-24T08:31:07;3.90;;;2.73;;
30147;SDS011;16960;49.404;8.248;2022-09-24T08:33:36;2.67;;;2.47;;
30147;SDS011;16960;49.404;8.248;2022-09-24T08:36:05;5.03;;;2.80;;
30147;SDS011;16960;49.404;8.248;2022-09-24T08:38:33;5.20;;;2.33;;
30147;SDS011;16960;49.404;8.248;2022-09-24T08:41:03;3.40;;;3.10;;
30147;SDS011;16960;49.404;8.248;2022-09-24T08:43:45;2.50;;;2.30;;
30147;SDS011;16960;49.404;8.248;2022-09-24T08:46:20;3.17;;;2.97;;
30147;SDS011;16960;49.404;8.248;2022-09-24T08:49:09;3.23;;;2.93;;
30147;SDS011;16960;49.404;8.248;2022-09-24T08:51:43;5.00;;;3.63;;
30147;SDS011;16960;49.404;8.248;2022-09-24T08:54:19;4.03;;;3.40;;
30147;SDS011;16960;49.404;8.248;2022-09-24T08:56:49;3.30;;;3.00;;
30147;SDS011;16960;49.404;8.248;2022-09-24T08:59:22;3.53;;;3.20;;
30147;SDS011;16960;49.404;8.248;2022-09-24T09:01:54;3.23;;;2.93;;
30147;SDS011;16960;49.404;8.248;2022-09-24T09:04:29;3.80;;;2.97;;
30147;SDS011;16960;49.404;8.248;2022-09-24T09:07:02;4.43;;;3.07;;
30147;SDS011;16960;49.404;8.248;2022-09-24T09:09:40;4.77;;;3.67;;
30147;SDS011;16960;49.404;8.248;2022-09-24T09:12:14;3.73;;;3.30;;
30147;SDS011;16960;49.404;8.248;2022-09-24T09:14:48;3.87;;;3.33;;
30147;SDS011;16960;49.404;8.248;2022-09-24T09:17:23;3.80;;;3.37;;
30147;SDS011;16960;49.404;8.248;2022-09-24T09:19:57;2.93;;;2.73;;
30147;SDS011;16960;49.404;8.248;2022-09-24T09:22:28;3.60;;;3.30;;
30147;SDS011;16960;49.404;8.248;2022-09-24T09:25:00;3.40;;;3.10;;
30147;SDS011;16960;49.404;8.248;2022-09-24T09:27:37;4.40;;;4.10;;
30147;SDS011;16960;49.404;8.248;2022-09-24T09:30:05;2.80;;;2.60;;
30147;SDS011;16960;49.404;8.248;2022-09-24T09:32:39;3.30;;;3.00;;
30147;SDS011;16960;49.404;8.248;2022-09-24T09:35:17;3.40;;;3.10;;
30147;SDS011;16960;49.404;8.248;2022-09-24T09:37:48;6.87;;;3.83;;
30147;SDS011;16960;49.404;8.248;2022-09-24T09:40:26;4.93;;;3.10;;
30147;SDS011;16960;49.404;8.248;2022-09-24T09:43:01;7.37;;;3.53;;
30147;SDS011;16960;49.404;8.248;2022-09-24T09:45:30;6.10;;;3.53;;
30147;SDS011;16960;49.404;8.248;2022-09-24T09:48:01;3.73;;;3.47;;
30147;SDS011;16960;49.404;8.248;2022-09-24T09:50:29;3.97;;;3.37;;
30147;SDS011;16960;49.404;8.248;2022-09-24T09:53:01;5.93;;;3.70;;
30147;SDS011;16960;49.404;8.248;2022-09-24T09:55:30;3.60;;;3.30;;
30147;SDS011;16960;49.404;8.248;2022-09-24T09:58:07;4.23;;;3.27;;
30147;SDS011;16960;49.404;8.248;2022-09-24T10:00:36;4.23;;;3.70;;
30147;SDS011;16960;49.404;8.248;2022-09-24T10:03:03;4.00;;;3.70;;
30147;SDS011;16960;49.404;8.248;2022-09-24T10:05:31;4.17;;;3.87;;
30147;SDS011;16960;49.404;8.248;2022-09-24T10:07:58;5.17;;;3.80;;
30147;SDS011;16960;49.404;8.248;2022-09-24T10:10:25;6.77;;;4.10;;
30147;SDS011;16960;49.404;8.248;2022-09-24T10:12:54;7.80;;;3.73;;
30147;SDS011;16960;49.404;8.248;2022-09-24T10:15:38;3.93;;;3.53;;
30147;SDS011;16960;49.404;8.248;2022-09-24T10:18:14;4.03;;;3.13;;
30147;SDS011;16960;49.404;8.248;2022-09-24T10:20:44;3.27;;;2.97;;
30147;SDS011;16960;49.404;8.248;2022-09-24T10:23:15;4.53;;;3.60;;
30147;SDS011;16960;49.404;8.248;2022-09-24T10:25:49;4.13;;;3.70;;
30147;SDS011;16960;49.404;8.248;2022-09-24T10:28:26;3.80;;;3.50;;
30147;SDS011;16960;49.404;8.248;2022-09-24T10:31:11;3.77;;;3.47;;
30147;SDS011;16960;49.404;8.248;2022-09-24T10:33:42;3.73;;;3.50;;
30147;SDS011;16960;49.404;8.248;2022-09-24T10:36:13;4.50;;;3.87;;
30147;SDS011;16960;49.404;8.248;2022-09-24T10:38:41;4.13;;;3.73;;
30147;SDS011;16960;49.404;8.248;2022-09-24T10:41:13;3.57;;;3.37;;
30147;SDS011;16960;49.404;8.248;2022-09-24T10:43:52;5.50;;;3.97;;
30147;SDS011;16960;49.404;8.248;2022-09-24T10:49:14;4.97;;;3.50;;
30147;SDS011;16960;49.404;8.248;2022-09-24T10:51:53;6.00;;;4.67;;
30147;SDS011;16960;49.404;8.248;2022-09-24T10:54:33;4.60;;;4.20;;
30147;SDS011;16960;49.404;8.248;2022-09-24T10:57:10;4.37;;;3.97;;
30147;SDS011;16960;49.404;8.248;2022-09-24T10:59:50;3.00;;;2.80;;
30147;SDS011;16960;49.404;8.248;2022-09-24T11:02:34;4.77;;;3.93;;
30147;SDS011;16960;49.404;8.248;2022-09-24T11:05:23;6.00;;;3.40;;
30147;SDS011;16960;49.404;8.248;2022-09-24T11:08:00;3.20;;;3.00;;
30147;SDS011;16960;49.404;8.248;2022-09-24T11:10:42;4.00;;;3.70;;
30147;SDS011;16960;49.404;8.248;2022-09-24T11:13:20;4.20;;;3.40;;
30147;SDS011;16960;49.404;8.248;2022-09-24T11:19:08;4.40;;;4.07;;
30147;SDS011;16960;49.404;8.248;2022-09-24T11:21:52;8.10;;;3.73;;
30147;SDS011;16960;49.404;8.248;2022-09-24T11:24:34;3.70;;;3.40;;
30147;SDS011;16960;49.404;8.248;2022-09-24T11:27:27;3.87;;;3.07;;
30147;SDS011;16960;49.404;8.248;2022-09-24T11:30:08;4.87;;;3.90;;
30147;SDS011;16960;49.404;8.248;2022-09-24T11:32:40;6.00;;;3.57;;
30147;SDS011;16960;49.404;8.248;2022-09-24T11:38:15;3.73;;;3.43;;
30147;SDS011;16960;49.404;8.248;2022-09-24T11:40:59;3.70;;;3.37;;
30147;SDS011;16960;49.404;8.248;2022-09-24T11:43:52;3.80;;;3.50;;
30147;SDS011;16960;49.404;8.248;2022-09-24T11:46:46;4.17;;;3.77;;
30147;SDS011;16960;49.404;8.248;2022-09-24T11:49:30;4.37;;;3.90;;
30147;SDS011;16960;49.404;8.248;2022-09-24T11:52:13;4.87;;;3.53;;
30147;SDS011;16960;49.404;8.248;2022-09-24T11:54:54;3.80;;;3.50;;
30147;SDS011;16960;49.404;8.248;2022-09-24T11:57:30;3.73;;;3.33;;
30147;SDS011;16960;49.404;8.248;2022-09-24T12:00:00;3.90;;;3.40;;
30147;SDS011;16960;49.404;8.248;2022-09-24T12:02:32;4.07;;;3.67;;
30147;SDS011;16960;49.404;8.248;2022-09-24T12:05:04;3.80;;;3.50;;
30147;SDS011;16960;49.404;8.248;2022-09-24T12:07:35;4.20;;;3.80;;
30147;SDS011;16960;49.404;8.248;2022-09-24T12:10:18;4.57;;;4.17;;
30147;SDS011;16960;49.404;8.248;2022-09-24T12:12:51;4.60;;;4.20;;
30147;SDS011;16960;49.404;8.248;2022-09-24T12:15:23;7.13;;;4.30;;
30147;SDS011;16960;49.404;8.248;2022-09-24T12:17:56;4.20;;;3.80;;
30147;SDS011;16960;49.404;8.248;2022-09-24T12:20:28;4.80;;;4.30;;
30147;SDS011;16960;49.404;8.248;2022-09-24T12:22:57;5.20;;;4.10;;
30147;SDS011;16960;49.404;8.248;2022-09-24T12:25:31;4.60;;;3.83;;
30147;SDS011;16960;49.404;8.248;2022-09-24T12:28:04;7.20;;;4.00;;
30147;SDS011;16960;49.404;8.248;2022-09-24T12:30:38;5.10;;;4.60;;
30147;SDS011;16960;49.404;8.248;2022-09-24T12:33:28;4.80;;;4.37;;
30147;SDS011;16960;49.404;8.248;2022-09-24T12:36:03;4.07;;;3.77;;
30147;SDS011;16960;49.404;8.248;2022-09-24T12:38:34;4.20;;;3.80;;
30147;SDS011;16960;49.404;8.248;2022-09-24T12:43:59;4.60;;;3.37;;
30147;SDS011;16960;49.404;8.248;2022-09-24T12:46:30;5.37;;;4.87;;
30147;SDS011;16960;49.404;8.248;2022-09-24T12:49:03;4.30;;;3.90;;
30147;SDS011;16960;49.404;8.248;2022-09-24T12:51:43;4.63;;;4.10;;
30147;SDS011;16960;49.404;8.248;2022-09-24T12:54:17;4.40;;;3.63;;
30147;SDS011;16960;49.404;8.248;2022-09-24T12:56:53;4.50;;;4.10;;
30147;SDS011;16960;49.404;8.248;2022-09-24T12:59:31;5.00;;;4.00;;
30147;SDS011;16960;49.404;8.248;2022-09-24T13:02:05;4.30;;;3.90;;
30147;SDS011;16960;49.404;8.248;2022-09-24T13:04:42;4.80;;;4.17;;
30147;SDS011;16960;49.404;8.248;2022-09-24T13:07:26;7.20;;;4.87;;
30147;SDS011;16960;49.404;8.248;2022-09-24T13:09:55;4.93;;;3.77;;
30147;SDS011;16960;49.404;8.248;2022-09-24T13:12:28;6.43;;;4.60;;
30147;SDS011;16960;49.404;8.248;2022-09-24T13:14:58;5.57;;;4.20;;
30147;SDS011;16960;49.404;8.248;2022-09-24T13:17:28;3.90;;;3.60;;
30147;SDS011;16960;49.404;8.248;2022-09-24T13:19:59;4.97;;;3.63;;
30147;SDS011;16960;49.404;8.248;2022-09-24T13:22:30;5.90;;;4.70;;
30147;SDS011;16960;49.404;8.248;2022-09-24T13:25:19;9.40;;;4.10;;
30147;SDS011;16960;49.404;8.248;2022-09-24T13:27:57;7.17;;;5.00;;
30147;SDS011;16960;49.404;8.248;2022-09-24T13:30:34;4.10;;;3.63;;
30147;SDS011;16960;49.404;8.248;2022-09-24T13:33:08;4.30;;;4.00;;
30147;SDS011;16960;49.404;8.248;2022-09-24T13:35:46;4.90;;;4.50;;
30147;SDS011;16960;49.404;8.248;2022-09-24T13:38:27;4.67;;;4.27;;
30147;SDS011;16960;49.404;8.248;2022-09-24T13:40:58;5.90;;;3.83;;
30147;SDS011;16960;49.404;8.248;2022-09-24T13:43:34;4.53;;;4.03;;
30147;SDS011;16960;49.404;8.248;2022-09-24T13:46:06;4.37;;;4.00;;
30147;SDS011;16960;49.404;8.248;2022-09-24T13:48:39;7.27;;;4.80;;
30147;SDS011;16960;49.404;8.248;2022-09-24T13:51:12;4.60;;;4.20;;
30147;SDS011;16960;49.404;8.248;2022-09-24T13:53:41;6.50;;;4.57;;
30147;SDS011;16960;49.404;8.248;2022-09-24T13:56:14;7.00;;;4.27;;
30147;SDS011;16960;49.404;8.248;2022-09-24T13:58:45;11.57;;;4.77;;
30147;SDS011;16960;49.404;8.248;2022-09-24T14:01:16;5.03;;;4.37;;
30147;SDS011;16960;49.404;8.248;2022-09-24T14:03:51;4.50;;;4.00;;
30147;SDS011;16960;49.404;8.248;2022-09-24T14:06:21;4.33;;;3.93;;
30147;SDS011;16960;49.404;8.248;2022-09-24T14:08:58;4.43;;;4.03;;
30147;SDS011;16960;49.404;8.248;2022-09-24T14:11:26;4.20;;;3.80;;
30147;SDS011;16960;49.404;8.248;2022-09-24T14:13:54;4.47;;;4.07;;
30147;SDS011;16960;49.404;8.248;2022-09-24T14:16:23;6.83;;;4.23;;
30147;SDS011;16960;49.404;8.248;2022-09-24T14:18:59;4.50;;;4.10;;
30147;SDS011;16960;49.404;8.248;2022-09-24T14:21:29;5.90;;;3.90;;
30147;SDS011;16960;49.404;8.248;2022-09-24T14:24:00;6.00;;;4.80;;
30147;SDS011;16960;49.404;8.248;2022-09-24T14:26:29;4.07;;;3.70;;
30147;SDS011;16960;49.404;8.248;2022-09-24T14:29:02;5.93;;;4.77;;
30147;SDS011;16960;49.404;8.248;2022-09-24T14:31:40;6.23;;;4.87;;
30147;SDS011;16960;49.404;8.248;2022-09-24T14:34:12;4.83;;;4.20;;
30147;SDS011;16960;49.404;8.248;2022-09-24T14:36:47;4.93;;;4.43;;
30147;SDS011;16960;49.404;8.248;2022-09-24T14:39:15;4.57;;;3.90;;
30147;SDS011;16960;49.404;8.248;2022-09-24T14:41:42;5.43;;;4.93;;
30147;SDS011;16960;49.404;8.248;2022-09-24T14:44:14;6.43;;;4.17;;
30147;SDS011;16960;49.404;8.248;2022-09-24T14:46:47;5.40;;;4.90;;
30147;SDS011;16960;49.404;8.248;2022-09-24T14:49:17;6.30;;;5.70;;
30147;SDS011;16960;49.404;8.248;2022-09-24T14:51:52;8.17;;;4.90;;
30147;SDS011;16960;49.404;8.248;2022-09-24T14:54:25;5.17;;;4.67;;
30147;SDS011;16960;49.404;8.248;2022-09-24T14:56:54;5.63;;;4.70;;
30147;SDS011;16960;49.404;8.248;2022-09-24T14:59:37;5.50;;;4.77;;
30147;SDS011;16960;49.404;8.248;2022-09-24T15:02:11;5.40;;;4.43;;
30147;SDS011;16960;49.404;8.248;2022-09-24T15:04:45;5.73;;;4.00;;
30147;SDS011;16960;49.404;8.248;2022-09-24T15:07:15;5.87;;;4.87;;
30147;SDS011;16960;49.404;8.248;2022-09-24T15:09:46;5.50;;;5.00;;
30147;SDS011;16960;49.404;8.248;2022-09-24T15:12:16;5.30;;;4.90;;
30147;SDS011;16960;49.404;8.248;2022-09-24T15:14:54;5.90;;;5.50;;
30147;SDS011;16960;49.404;8.248;2022-09-24T15:17:22;8.03;;;4.70;;
30147;SDS011;16960;49.404;8.248;2022-09-24T15:19:54;5.30;;;4.80;;
30147;SDS011;16960;49.404;8.248;2022-09-24T15:22:22;4.50;;;4.10;;
30147;SDS011;16960;49.404;8.248;2022-09-24T15:24:51;5.20;;;4.80;;